Weather at Marawah Airport

Public forecast

Using degrees Celsius for public forecast. Weather courtesy of forecast.io.

Closest aviation weather report (METAR) to Marawah Airport

Closest report is Al Bateen Executive Airport, 62.7 nm (116.0 km) E.

2024/06/16 22:00 (retrieved 40 minutes ago)

OMAD 162200Z 34009KT CAVOK 34/25 Q0999 NOSIG

Closest aviation forecast (TAF) to Marawah Airport

Closest forecast is Al Bateen Executive Airport, 62.7 nm (116.0 km) E.

2024/06/16 18:00 (retrieved 5 hours ago)

TAF OMAD 161700Z 1618/1800 03005KT 8000 NSC PROB30 1700/1704 4000 HZ BECMG 1703/1705 14007KT BECMG 1707/1709 34014KT BECMG 1718/1720 05005KT